Time;durP1;ratioP1;P1;durP2;ratioP2;P2;SDS_P1;SDS_P2;PMS_P1;PMS_P2;Temp;Humidity;BMP_temperature;BMP_pressure;BME280_temperature;BME280_humidity;BME280_pressure;Samples;Min_cycle;Max_cycle;Signal;HPM_P1;HPM_P2
2023/04/01 00:01:25;;;;;;;3.80;3.00;;;9.70;99.90;;;;;;5092633;27;20256;-73
2023/04/01 00:03:50;;;;;;;3.05;2.53;;;9.70;99.90;;;;;;5123996;27;20035;-73
2023/04/01 00:06:18;;;;;;;4.95;2.70;;;9.70;99.90;;;;;;5109751;27;20471;-73
2023/04/01 00:08:44;;;;;;;4.28;2.97;;;9.70;99.90;;;;;;5111624;27;20074;-75
2023/04/01 00:11:10;;;;;;;4.75;3.10;;;9.70;99.90;;;;;;5138037;27;20051;-71
2023/04/01 00:13:36;;;;;;;5.85;3.30;;;9.70;99.90;;;;;;5113793;27;20462;-71
2023/04/01 00:16:02;;;;;;;4.32;3.53;;;9.70;99.90;;;;;;5115115;27;20036;-72
2023/04/01 00:18:28;;;;;;;3.95;3.22;;;9.70;99.90;;;;;;5110974;27;20043;-73
2023/04/01 00:20:54;;;;;;;3.40;3.10;;;9.70;99.90;;;;;;5093580;28;20051;-72
2023/04/01 00:23:20;;;;;;;3.53;3.20;;;9.70;99.90;;;;;;5094078;27;20035;-73
2023/04/01 00:25:47;;;;;;;5.75;3.50;;;9.70;99.90;;;;;;5107119;27;20059;-71
2023/04/01 00:28:15;;;;;;;3.70;3.40;;;9.70;99.90;;;;;;5138575;27;20060;-71
2023/04/01 00:30:41;;;;;;;3.95;3.20;;;9.70;99.90;;;;;;5111140;27;20035;-73
2023/04/01 00:33:07;;;;;;;3.45;3.00;;;9.70;99.90;;;;;;5109627;27;20030;-72
2023/04/01 00:35:32;;;;;;;4.43;3.22;;;9.70;99.90;;;;;;5109027;27;20136;-73
2023/04/01 00:37:58;;;;;;;3.38;3.05;;;9.70;99.90;;;;;;5113488;27;20409;-73
2023/04/01 00:40:34;;;;;;;4.18;3.25;;;9.70;99.90;;;;;;5105148;27;20446;-71
2023/04/01 00:43:00;;;;;;;5.65;3.10;;;9.70;99.90;;;;;;5097110;27;20063;-72
2023/04/01 00:45:38;;;;;;;3.72;2.90;;;9.70;99.90;;;;;;5096751;27;20114;-72
2023/04/01 00:48:11;;;;;;;5.65;3.28;;;9.70;99.90;;;;;;5137858;27;20119;-73
2023/04/01 00:50:40;;;;;;;4.38;3.30;;;9.70;99.90;;;;;;5124754;27;20028;-75
2023/04/01 00:53:07;;;;;;;3.95;3.17;;;9.70;99.90;;;;;;5092200;27;20043;-73
2023/04/01 00:55:36;;;;;;;5.22;3.03;;;9.70;99.90;;;;;;5113588;27;20039;-71
2023/04/01 00:58:07;;;;;;;3.63;3.00;;;9.70;99.90;;;;;;5115401;27;20073;-71
2023/04/01 01:00:34;;;;;;;3.38;2.95;;;9.70;99.90;;;;;;5113731;27;20043;-72
2023/04/01 01:02:59;;;;;;;5.22;3.80;;;9.70;99.90;;;;;;5113004;27;20039;-72
2023/04/01 01:05:48;;;;;;;3.40;3.10;;;9.70;99.90;;;;;;5106560;27;20042;-72
2023/04/01 01:08:20;;;;;;;5.15;3.10;;;9.70;99.90;;;;;;5111906;27;20035;-71
2023/04/01 01:10:49;;;;;;;4.35;3.03;;;9.70;99.90;;;;;;5112171;27;20032;-71
2023/04/01 01:13:25;;;;;;;3.58;3.28;;;9.70;99.90;;;;;;5116741;27;20027;-72
2023/04/01 01:15:59;;;;;;;2.97;2.75;;;9.70;99.90;;;;;;5135615;27;20038;-72
2023/04/01 01:18:46;;;;;;;3.65;3.35;;;9.70;99.90;;;;;;5114171;27;20059;-71
2023/04/01 01:21:20;;;;;;;4.15;3.05;;;9.70;99.90;;;;;;5108098;27;20061;-72
2023/04/01 01:24:17;;;;;;;3.60;3.00;;;9.70;99.90;;;;;;5095646;27;20136;-71
2023/04/01 01:27:03;;;;;;;5.28;3.47;;;9.70;99.90;;;;;;5112721;27;20394;-73
2023/04/01 01:29:47;;;;;;;3.95;3.00;;;9.70;99.90;;;;;;5110273;27;20040;-71
2023/04/01 01:32:31;;;;;;;4.03;3.05;;;9.70;99.90;;;;;;5112208;27;20035;-74
2023/04/01 01:35:20;;;;;;;4.45;3.13;;;9.70;99.90;;;;;;5110074;27;20182;-71
2023/04/01 01:37:47;;;;;;;3.25;2.95;;;9.70;99.90;;;;;;5133334;27;20036;-73
2023/04/01 01:40:15;;;;;;;3.53;3.22;;;9.70;99.90;;;;;;5112718;27;20166;-72
2023/04/01 01:42:47;;;;;;;5.95;3.20;;;9.80;99.90;;;;;;5120071;27;20042;-73
2023/04/01 01:45:17;;;;;;;3.70;3.28;;;9.70;99.90;;;;;;5127242;27;20038;-73
2023/04/01 01:47:45;;;;;;;3.47;3.17;;;9.80;99.90;;;;;;5138117;27;20023;-72
2023/04/01 01:50:13;;;;;;;3.40;3.10;;;9.80;99.90;;;;;;5132238;27;20510;-71
2023/04/01 01:52:38;;;;;;;3.80;2.90;;;9.80;99.90;;;;;;5122730;27;20047;-73
2023/04/01 01:55:26;;;;;;;3.70;3.03;;;9.80;99.90;;;;;;5112849;27;20041;-71
2023/04/01 01:57:52;;;;;;;5.82;3.30;;;9.80;99.90;;;;;;5137517;27;20047;-71
2023/04/01 02:00:19;;;;;;;4.90;3.03;;;9.80;99.90;;;;;;5112333;27;20073;-72
2023/04/01 02:02:47;;;;;;;4.75;3.30;;;9.70;99.90;;;;;;5099349;27;20043;-72
2023/04/01 02:05:20;;;;;;;3.33;3.03;;;9.70;99.90;;;;;;5101114;27;20457;-72
2023/04/01 02:08:01;;;;;;;5.18;3.33;;;9.80;99.90;;;;;;5121353;27;20027;-72
2023/04/01 02:10:31;;;;;;;4.80;3.25;;;9.70;99.90;;;;;;5096138;27;20504;-72
2023/04/01 02:13:01;;;;;;;4.25;3.13;;;9.70;99.90;;;;;;5116173;27;20394;-73
2023/04/01 02:15:30;;;;;;;4.40;3.00;;;9.80;99.90;;;;;;5113513;27;20380;-72
2023/04/01 02:17:56;;;;;;;4.05;3.55;;;9.70;99.90;;;;;;5115331;27;20378;-74
2023/04/01 02:20:23;;;;;;;6.82;3.60;;;9.70;99.90;;;;;;5143780;27;20042;-71
2023/04/01 02:22:59;;;;;;;4.75;3.60;;;9.70;99.90;;;;;;5125125;27;20045;-73
2023/04/01 02:25:33;;;;;;;3.97;3.20;;;9.70;99.90;;;;;;5116714;27;20068;-72
2023/04/01 02:28:00;;;;;;;3.83;3.33;;;9.70;99.90;;;;;;5146301;27;20047;-72
2023/04/01 02:30:28;;;;;;;5.00;3.63;;;9.70;99.90;;;;;;5115624;27;20031;-71
2023/04/01 02:32:56;;;;;;;5.00;3.80;;;9.70;99.90;;;;;;5118846;27;20123;-71
2023/04/01 02:35:22;;;;;;;4.35;3.58;;;9.80;99.90;;;;;;5113887;27;20050;-72
2023/04/01 02:37:50;;;;;;;4.00;3.60;;;9.80;99.90;;;;;;5143270;27;20589;-73
2023/04/01 02:40:17;;;;;;;5.45;3.78;;;9.80;99.90;;;;;;5115817;27;20045;-71
2023/04/01 02:42:43;;;;;;;4.20;3.50;;;9.80;99.90;;;;;;5097940;27;20035;-73
2023/04/01 02:45:09;;;;;;;5.07;3.75;;;9.70;99.90;;;;;;5116101;27;20050;-72
2023/04/01 02:47:35;;;;;;;4.65;3.88;;;9.80;99.90;;;;;;5115124;27;20045;-74
2023/04/01 02:50:00;;;;;;;4.47;3.63;;;9.80;99.90;;;;;;5114703;27;20046;-72
2023/04/01 02:52:27;;;;;;;4.85;3.70;;;9.70;99.90;;;;;;5099193;27;20044;-72
2023/04/01 02:54:53;;;;;;;6.13;3.90;;;9.70;99.90;;;;;;5119201;27;20070;-71
2023/04/01 02:57:19;;;;;;;4.72;4.32;;;9.80;99.90;;;;;;5102701;27;20050;-73
2023/04/01 02:59:45;;;;;;;4.95;3.75;;;9.70;99.90;;;;;;5118617;27;20043;-71
2023/04/01 03:02:11;;;;;;;4.20;3.80;;;9.80;99.90;;;;;;5119224;27;20035;-71
2023/04/01 03:04:37;;;;;;;6.38;3.70;;;9.80;99.90;;;;;;5147339;27;20683;-71
2023/04/01 03:07:02;;;;;;;4.45;3.85;;;9.80;99.90;;;;;;5117041;27;20143;-71
2023/04/01 03:09:28;;;;;;;4.90;3.55;;;9.70;99.90;;;;;;5117160;27;20526;-72
2023/04/01 03:11:54;;;;;;;4.25;3.78;;;9.80;99.90;;;;;;5117013;27;20126;-73
2023/04/01 03:14:20;;;;;;;5.53;4.00;;;9.80;99.90;;;;;;5127792;27;20061;-72
2023/04/01 03:16:46;;;;;;;4.63;4.07;;;9.80;99.90;;;;;;5114339;27;20467;-75
2023/04/01 03:19:11;;;;;;;4.28;3.83;;;9.80;99.90;;;;;;5121007;27;20099;-74
2023/04/01 03:21:37;;;;;;;4.90;4.05;;;9.80;99.90;;;;;;5122066;27;20060;-73
2023/04/01 03:24:03;;;;;;;4.55;4.07;;;9.80;99.90;;;;;;5122720;27;20129;-72
2023/04/01 03:26:29;;;;;;;4.93;3.92;;;9.80;99.90;;;;;;5102393;27;20039;-72
2023/04/01 03:28:55;;;;;;;5.03;3.92;;;9.80;99.90;;;;;;5149473;27;20037;-72
2023/04/01 03:31:21;;;;;;;4.90;4.50;;;9.80;99.90;;;;;;5116528;27;20081;-71
2023/04/01 03:33:47;;;;;;;3.92;3.53;;;9.80;99.90;;;;;;5126448;27;20062;-72
2023/04/01 03:36:12;;;;;;;4.30;3.88;;;9.80;99.90;;;;;;5117925;27;20477;-72
2023/04/01 03:38:40;;;;;;;4.50;3.90;;;9.80;99.90;;;;;;5120467;27;20042;-76
2023/04/01 03:41:06;;;;;;;4.95;4.13;;;9.90;99.90;;;;;;5119728;27;20058;-72
2023/04/01 03:43:33;;;;;;;4.20;3.70;;;9.90;99.90;;;;;;5115302;27;20045;-73
2023/04/01 03:45:58;;;;;;;4.00;3.60;;;9.90;99.90;;;;;;5116451;27;21743;-71
2023/04/01 03:48:25;;;;;;;4.38;3.97;;;9.90;99.90;;;;;;5116235;27;20047;-75
2023/04/01 03:50:51;;;;;;;4.63;4.10;;;9.90;99.90;;;;;;5122794;27;20034;-71
2023/04/01 03:53:17;;;;;;;4.93;4.43;;;9.90;99.90;;;;;;5117558;27;20084;-72
2023/04/01 03:55:43;;;;;;;5.47;4.43;;;9.90;99.90;;;;;;5119952;27;20084;-73
2023/04/01 03:58:09;;;;;;;5.10;4.20;;;9.80;99.90;;;;;;5120933;27;20047;-73
2023/04/01 04:00:35;;;;;;;5.93;4.32;;;9.90;99.90;;;;;;5101794;27;20050;-71
2023/04/01 04:03:01;;;;;;;4.50;4.10;;;9.80;99.90;;;;;;5116706;27;20406;-72
2023/04/01 04:05:27;;;;;;;4.72;4.32;;;9.90;99.90;;;;;;5116947;27;20046;-73
2023/04/01 04:07:53;;;;;;;5.00;4.47;;;9.90;99.90;;;;;;5113539;27;20457;-72
2023/04/01 04:10:20;;;;;;;4.68;4.25;;;9.90;99.90;;;;;;5117942;27;20095;-73
2023/04/01 04:12:45;;;;;;;4.80;4.05;;;9.90;99.90;;;;;;5112646;27;20038;-72
2023/04/01 04:15:12;;;;;;;5.00;4.50;;;9.90;99.90;;;;;;5095017;27;20046;-72
2023/04/01 04:17:38;;;;;;;5.90;4.28;;;9.90;99.90;;;;;;5125347;27;20485;-71
2023/04/01 04:20:04;;;;;;;5.10;4.55;;;9.90;99.90;;;;;;5101211;27;20059;-75
2023/04/01 04:22:30;;;;;;;4.95;4.45;;;9.90;99.90;;;;;;5142041;27;20122;-72
2023/04/01 04:24:55;;;;;;;5.07;4.57;;;10.00;99.90;;;;;;5111523;27;20446;-72
2023/04/01 04:27:21;;;;;;;5.10;4.60;;;10.00;99.90;;;;;;5117284;27;20095;-73
2023/04/01 04:29:47;;;;;;;5.22;4.72;;;10.00;99.90;;;;;;5116408;27;20041;-72
2023/04/01 04:32:12;;;;;;;5.97;4.93;;;10.00;99.90;;;;;;5096805;27;20137;-72
2023/04/01 04:34:38;;;;;;;5.15;4.57;;;10.00;99.90;;;;;;5108642;27;20400;-73
2023/04/01 04:37:04;;;;;;;5.63;4.55;;;10.00;99.90;;;;;;5115506;27;20541;-73
2023/04/01 04:39:30;;;;;;;4.63;4.13;;;10.00;99.90;;;;;;5114051;27;20039;-72
2023/04/01 04:41:56;;;;;;;5.80;4.35;;;10.00;99.90;;;;;;5100210;27;20137;-71
2023/04/01 04:44:22;;;;;;;4.65;4.25;;;10.00;99.90;;;;;;5120308;27;20042;-75
2023/04/01 04:46:51;;;;;;;4.88;4.43;;;10.00;99.90;;;;;;5109160;27;20031;-71
2023/04/01 04:49:16;;;;;;;4.70;4.28;;;10.00;99.90;;;;;;5105988;27;20075;-74
2023/04/01 04:51:42;;;;;;;4.47;3.95;;;10.00;99.90;;;;;;5137959;27;20370;-73
2023/04/01 04:54:08;;;;;;;4.43;4.03;;;10.00;99.90;;;;;;5103957;27;20433;-74
2023/04/01 04:56:35;;;;;;;4.30;3.90;;;10.00;99.90;;;;;;5118577;27;20059;-72
2023/04/01 04:59:01;;;;;;;4.47;4.07;;;10.00;99.90;;;;;;5116010;27;20047;-72
2023/04/01 05:01:27;;;;;;;4.82;4.32;;;10.00;99.90;;;;;;5099495;27;20039;-71
2023/04/01 05:03:52;;;;;;;4.68;4.28;;;10.00;99.90;;;;;;5120670;27;20113;-72
2023/04/01 05:06:19;;;;;;;4.43;4.00;;;10.00;99.90;;;;;;5112297;27;20071;-71
2023/04/01 05:08:45;;;;;;;5.38;4.63;;;10.00;99.90;;;;;;5096785;27;20059;-74
2023/04/01 05:11:14;;;;;;;4.78;4.38;;;10.00;99.90;;;;;;5141081;27;20039;-74
2023/04/01 05:13:41;;;;;;;4.97;4.50;;;10.00;99.90;;;;;;5116942;27;20054;-72
2023/04/01 05:16:11;;;;;;;5.95;5.35;;;10.00;99.90;;;;;;5114425;27;20179;-72
2023/04/01 05:18:37;;;;;;;5.60;5.10;;;10.00;99.90;;;;;;5115139;27;20047;-71
2023/04/01 05:21:03;;;;;;;5.50;5.00;;;10.00;99.90;;;;;;5125322;27;20042;-70
2023/04/01 05:23:33;;;;;;;5.78;5.18;;;10.00;99.90;;;;;;5115001;27;20046;-72
2023/04/01 05:26:02;;;;;;;6.10;5.50;;;10.00;99.90;;;;;;5109001;27;20116;-73
2023/04/01 05:28:27;;;;;;;6.25;5.53;;;10.00;99.90;;;;;;5109895;27;20035;-73
2023/04/01 05:30:53;;;;;;;6.43;5.55;;;10.00;99.90;;;;;;5115229;27;20448;-73
2023/04/01 05:33:19;;;;;;;6.68;5.88;;;10.00;99.90;;;;;;5116912;27;20057;-73
2023/04/01 05:35:44;;;;;;;8.07;6.47;;;10.10;99.90;;;;;;5111564;27;20027;-72
2023/04/01 05:38:10;;;;;;;7.85;7.05;;;10.10;99.90;;;;;;5113826;27;20035;-72
2023/04/01 05:40:36;;;;;;;9.23;7.10;;;10.00;99.90;;;;;;5112949;27;20047;-75
2023/04/01 05:43:01;;;;;;;8.15;6.57;;;10.00;99.90;;;;;;5098274;27;20054;-71
2023/04/01 05:45:27;;;;;;;7.90;7.05;;;10.00;99.90;;;;;;5110119;27;20042;-73
2023/04/01 05:47:55;;;;;;;8.13;7.30;;;10.10;99.90;;;;;;5109951;27;20378;-71
2023/04/01 05:50:20;;;;;;;8.65;6.93;;;10.00;99.90;;;;;;5110105;27;20168;-73
2023/04/01 05:52:46;;;;;;;7.63;6.82;;;10.10;99.90;;;;;;5108097;27;20201;-73
2023/04/01 05:55:12;;;;;;;7.13;6.43;;;10.10;99.90;;;;;;5110812;27;20050;-73
2023/04/01 05:57:37;;;;;;;6.93;6.03;;;10.10;99.90;;;;;;5093027;27;20055;-73
2023/04/01 06:00:04;;;;;;;6.68;5.97;;;10.10;99.90;;;;;;5106585;27;20055;-73
2023/04/01 06:02:30;;;;;;;6.68;5.97;;;10.10;99.90;;;;;;5110285;27;20035;-73
2023/04/01 06:05:13;;;;;;;6.50;5.45;;;10.10;99.90;;;;;;5110769;27;20114;-71
2023/04/01 06:07:39;;;;;;;6.57;5.57;;;10.10;99.90;;;;;;5111624;27;20080;-71
2023/04/01 06:10:18;;;;;;;5.78;5.18;;;10.10;99.90;;;;;;5112157;27;20055;-72
2023/04/01 06:13:29;;;;;;;6.00;5.40;;;10.10;99.90;;;;;;5135962;27;20031;-72
2023/04/01 06:16:04;;;;;;;6.00;5.40;;;10.10;99.90;;;;;;5077145;27;20508;-73
2023/04/01 06:18:44;;;;;;;7.25;5.53;;;10.10;99.90;;;;;;5136169;27;20053;-72
2023/04/01 06:21:25;;;;;;;5.55;5.00;;;10.10;99.90;;;;;;5134686;27;20039;-71
2023/04/01 06:24:15;;;;;;;6.35;5.65;;;10.20;99.90;;;;;;5116122;27;21837;-71
2023/04/01 06:27:09;;;;;;;6.28;4.82;;;10.20;99.90;;;;;;5089620;27;20043;-72
2023/04/01 06:29:44;;;;;;;6.43;5.40;;;10.20;99.90;;;;;;5027188;28;20470;-71
2023/04/01 06:32:46;;;;;;;6.10;5.50;;;10.20;99.90;;;;;;5029799;28;20119;-73
2023/04/01 06:35:24;;;;;;;7.15;5.63;;;10.20;99.90;;;;;;5035824;28;20127;-72
2023/04/01 06:38:17;;;;;;;6.80;5.63;;;10.20;99.90;;;;;;5026855;28;20053;-71
2023/04/01 06:41:07;;;;;;;6.20;4.97;;;10.20;99.90;;;;;;5038272;28;20435;-72
2023/04/01 06:44:04;;;;;;;5.95;5.15;;;10.20;99.90;;;;;;5039568;28;20037;-71
2023/04/01 06:46:47;;;;;;;5.60;5.00;;;10.30;99.90;;;;;;5012979;28;20041;-73
2023/04/01 06:49:16;;;;;;;5.88;4.43;;;10.30;99.90;;;;;;5008927;28;20038;-73
2023/04/01 06:52:24;;;;;;;6.13;4.97;;;10.40;99.90;;;;;;5011280;28;20116;-73
2023/04/01 06:55:17;;;;;;;6.25;5.18;;;10.40;99.90;;;;;;5037177;28;20058;-72
2023/04/01 06:57:50;;;;;;;6.72;4.88;;;10.50;99.90;;;;;;5010980;28;20562;-72
2023/04/01 07:00:39;;;;;;;8.10;5.10;;;10.50;99.90;;;;;;5031271;28;20050;-70
2023/04/01 07:03:17;;;;;;;7.25;4.72;;;10.50;99.90;;;;;;5025873;28;20045;-72
2023/04/01 07:05:43;;;;;;;7.22;5.53;;;10.60;99.90;;;;;;5025297;27;20171;-72
2023/04/01 07:08:15;;;;;;;7.38;5.70;;;10.70;99.90;;;;;;5092207;27;20442;-69
2023/04/01 07:10:59;;;;;;;7.30;5.57;;;10.70;99.90;;;;;;5111302;27;20494;-73
2023/04/01 07:13:31;;;;;;;6.60;5.22;;;10.70;99.90;;;;;;5109196;27;20455;-71
2023/04/01 07:16:24;;;;;;;6.95;5.78;;;10.70;99.90;;;;;;5111102;27;20046;-73
2023/04/01 07:18:56;;;;;;;7.22;5.95;;;10.70;99.90;;;;;;5099793;28;20049;-71
2023/04/01 07:21:49;;;;;;;8.60;6.20;;;10.80;99.90;;;;;;5073515;28;20044;-72
2023/04/01 07:24:37;;;;;;;7.35;6.45;;;10.80;99.90;;;;;;4979121;28;20088;-71
2023/04/01 07:27:08;;;;;;;7.75;6.60;;;10.90;99.90;;;;;;4998597;28;20045;-70
2023/04/01 07:29:34;;;;;;;9.45;7.50;;;10.90;99.90;;;;;;5018870;28;20069;-73
2023/04/01 07:32:13;;;;;;;8.88;7.25;;;10.90;99.90;;;;;;4992664;28;20042;-74
2023/04/01 07:34:47;;;;;;;7.75;6.85;;;10.90;99.90;;;;;;4992252;28;20108;-71
2023/04/01 07:37:38;;;;;;;7.30;6.32;;;10.90;99.90;;;;;;4990866;28;20148;-71
2023/04/01 07:40:41;;;;;;;6.72;6.00;;;10.90;99.90;;;;;;4907447;29;20090;-72
2023/04/01 07:43:18;;;;;;;5.80;5.13;;;10.90;99.90;;;;;;4902684;29;20059;-71
2023/04/01 07:46:11;;;;;;;5.38;4.88;;;11.00;99.90;;;;;;4911231;29;20044;-72
2023/04/01 07:49:09;;;;;;;5.47;4.88;;;11.00;99.90;;;;;;4910010;29;20048;-70
2023/04/01 07:51:54;;;;;;;5.65;4.20;;;11.00;99.90;;;;;;4894517;29;20052;-71
2023/04/01 07:54:49;;;;;;;4.90;4.40;;;11.10;99.90;;;;;;4905601;29;20063;-72
2023/04/01 07:57:30;;;;;;;4.20;3.80;;;11.10;99.90;;;;;;4931103;28;20173;-71
2023/04/01 08:00:15;;;;;;;4.20;3.80;;;11.10;99.90;;;;;;4952019;28;20482;-72
2023/04/01 08:03:07;;;;;;;3.38;3.08;;;11.20;99.90;;;;;;5017691;28;20049;-74
2023/04/01 08:05:53;;;;;;;4.55;3.50;;;11.30;99.90;;;;;;5040057;28;20045;-72
2023/04/01 08:08:48;;;;;;;3.85;3.33;;;11.40;99.90;;;;;;5037372;28;20080;-72
2023/04/01 08:11:22;;;;;;;3.42;3.10;;;11.40;99.90;;;;;;5008455;28;20048;-72
2023/04/01 08:14:25;;;;;;;3.58;3.20;;;11.40;99.90;;;;;;5021100;28;20036;-73
2023/04/01 08:17:26;;;;;;;3.10;2.80;;;11.50;99.90;;;;;;5048997;27;20060;-72
2023/04/01 08:20:23;;;;;;;2.70;2.50;;;11.50;99.90;;;;;;5088927;27;20048;-72
2023/04/01 08:23:15;;;;;;;2.97;2.67;;;11.50;99.90;;;;;;5072451;28;20093;-71
2023/04/01 08:25:51;;;;;;;2.65;2.45;;;11.50;99.90;;;;;;5098739;28;20046;-72
2023/04/01 08:28:41;;;;;;;3.53;2.92;;;11.50;99.90;;;;;;5099483;27;20487;-72
2023/04/01 08:31:15;;;;;;;3.58;3.22;;;11.50;99.90;;;;;;5065197;28;20402;-73
2023/04/01 08:33:42;;;;;;;3.60;3.30;;;11.50;99.90;;;;;;5067024;28;20148;-73
2023/04/01 08:36:16;;;;;;;4.00;3.60;;;11.40;99.90;;;;;;5092617;27;20087;-74
2023/04/01 08:39:06;;;;;;;4.00;3.60;;;11.50;99.90;;;;;;5072768;28;20032;-72
2023/04/01 08:41:47;;;;;;;4.32;3.92;;;11.40;99.90;;;;;;5100688;28;20047;-71
2023/04/01 08:44:27;;;;;;;4.75;4.25;;;11.40;99.90;;;;;;5082944;28;20169;-74
2023/04/01 08:47:35;;;;;;;4.82;4.43;;;11.50;99.90;;;;;;5071929;28;20052;-71
2023/04/01 08:50:21;;;;;;;6.07;5.47;;;11.50;99.90;;;;;;5105127;27;20050;-72
2023/04/01 08:53:20;;;;;;;5.35;4.85;;;11.50;99.90;;;;;;5100400;27;20132;-72
2023/04/01 08:56:04;;;;;;;4.85;4.45;;;11.40;99.90;;;;;;4978769;28;20194;-71
2023/04/01 08:59:06;;;;;;;5.18;4.68;;;11.40;99.90;;;;;;4993543;28;20069;-70
2023/04/01 09:02:10;;;;;;;5.65;4.63;;;11.40;99.90;;;;;;5002242;28;20037;-72
2023/04/01 09:04:49;;;;;;;4.97;4.47;;;11.50;99.90;;;;;;4992293;28;20122;-70
2023/04/01 09:07:25;;;;;;;4.72;4.32;;;11.40;99.90;;;;;;5007351;28;20500;-71
2023/04/01 09:10:09;;;;;;;3.60;3.30;;;11.40;99.90;;;;;;5004919;28;20124;-71
2023/04/01 09:12:51;;;;;;;3.20;2.40;;;11.40;99.90;;;;;;4985277;28;20089;-72
2023/04/01 09:15:25;;;;;;;2.97;2.67;;;11.50;99.90;;;;;;5008221;28;20046;-71
2023/04/01 09:18:08;;;;;;;3.03;2.60;;;11.80;99.90;;;;;;5004507;28;20045;-73
2023/04/01 09:20:59;;;;;;;3.08;2.53;;;11.90;99.90;;;;;;5003271;28;20042;-70
2023/04/01 09:23:31;;;;;;;2.53;1.73;;;12.10;99.90;;;;;;5020790;28;20189;-73
2023/04/01 09:26:18;;;;;;;3.00;2.35;;;12.10;99.90;;;;;;5006070;28;20080;-71
2023/04/01 09:29:00;;;;;;;2.03;1.90;;;12.10;99.90;;;;;;5021183;28;20080;-73
2023/04/01 09:32:16;;;;;;;2.47;1.70;;;12.10;99.90;;;;;;5055106;28;20107;-74
2023/04/01 09:34:51;;;;;;;2.20;2.00;;;12.10;99.90;;;;;;5071388;28;20048;-74
2023/04/01 09:37:40;;;;;;;3.20;2.30;;;12.00;99.90;;;;;;5062082;28;20109;-72
2023/04/01 09:40:38;;;;;;;2.38;1.90;;;12.00;99.90;;;;;;5000288;28;20484;-74
2023/04/01 09:43:06;;;;;;;2.20;2.00;;;12.10;99.90;;;;;;4858550;29;20522;-72
2023/04/01 09:45:58;;;;;;;2.53;2.33;;;12.20;99.90;;;;;;4866505;29;20056;-72
2023/04/01 09:48:43;;;;;;;4.68;2.33;;;12.20;99.90;;;;;;4876526;29;20048;-72
2023/04/01 09:51:17;;;;;;;3.70;2.92;;;12.20;99.90;;;;;;4876414;29;20139;-74
2023/04/01 09:53:57;;;;;;;4.07;3.67;;;12.10;99.90;;;;;;4892182;29;20167;-75
2023/04/01 09:56:47;;;;;;;4.18;3.88;;;12.10;99.90;;;;;;4889856;29;20109;-73
2023/04/01 09:59:43;;;;;;;4.55;4.10;;;12.10;99.90;;;;;;4868909;29;20040;-72
2023/04/01 10:02:42;;;;;;;4.63;4.22;;;12.10;99.90;;;;;;4874428;29;20044;-73
2023/04/01 10:05:45;;;;;;;5.53;4.43;;;12.20;99.90;;;;;;4876803;29;20048;-72
2023/04/01 10:08:31;;;;;;;5.65;4.88;;;12.20;99.90;;;;;;4891056;29;20037;-71
2023/04/01 10:11:12;;;;;;;5.22;4.72;;;12.20;99.90;;;;;;4898409;29;20052;-72
2023/04/01 10:14:20;;;;;;;5.57;5.07;;;12.20;99.90;;;;;;4899876;29;20359;-72
2023/04/01 10:17:25;;;;;;;6.05;5.53;;;12.20;99.90;;;;;;4932206;28;20479;-73
2023/04/01 10:20:27;;;;;;;5.93;5.15;;;12.20;99.90;;;;;;5054122;28;20070;-72
2023/04/01 10:23:15;;;;;;;6.07;5.47;;;12.20;99.90;;;;;;5095586;28;20040;-72
2023/04/01 10:26:02;;;;;;;5.95;5.40;;;12.30;99.90;;;;;;5069733;28;20073;-74
2023/04/01 10:28:35;;;;;;;6.78;6.07;;;12.30;99.90;;;;;;5093304;28;20526;-73
2023/04/01 10:31:03;;;;;;;;;;;12.40;99.90;;;;;;5089165;28;20350;-74
2023/04/01 10:33:32;;;;;;;6.50;5.80;;;12.40;99.90;;;;;;5090645;28;20010;-74
2023/04/01 10:36:35;;;;;;;6.50;5.90;;;12.50;99.90;;;;;;5088710;28;20498;-73
2023/04/01 10:39:13;;;;;;;7.30;6.07;;;12.50;99.90;;;;;;5095703;28;20074;-71
2023/04/01 10:41:44;;;;;;;6.85;6.15;;;12.50;99.90;;;;;;5102519;27;20517;-72
2023/04/01 10:44:31;;;;;;;6.78;6.18;;;12.40;99.90;;;;;;5121022;27;20092;-72
2023/04/01 10:47:25;;;;;;;6.50;5.90;;;12.50;99.90;;;;;;5140249;27;20035;-73
2023/04/01 10:50:10;;;;;;;6.85;6.20;;;12.40;99.90;;;;;;5125885;27;20046;-72
2023/04/01 10:52:57;;;;;;;7.32;6.38;;;12.40;99.90;;;;;;5125070;27;20088;-73
2023/04/01 10:55:44;;;;;;;7.25;6.55;;;12.30;99.90;;;;;;5109906;27;20042;-75
2023/04/01 10:58:31;;;;;;;7.47;6.47;;;12.30;99.90;;;;;;5130507;27;20042;-72
2023/04/01 11:01:15;;;;;;;7.32;6.63;;;12.30;99.90;;;;;;5123306;27;20043;-72
2023/04/01 11:04:16;;;;;;;8.13;6.68;;;12.40;99.90;;;;;;5115549;27;20038;-75
2023/04/01 11:07:00;;;;;;;7.10;6.50;;;12.40;99.90;;;;;;5106227;27;20083;-72
2023/04/01 11:09:55;;;;;;;7.78;7.05;;;12.50;99.90;;;;;;5132384;27;20077;-73
2023/04/01 11:12:39;;;;;;;8.43;7.43;;;12.50;99.90;;;;;;5155627;27;20091;-73
2023/04/01 11:15:29;;;;;;;8.63;7.72;;;12.50;99.90;;;;;;5124503;27;20039;-70
2023/04/01 11:18:26;;;;;;;8.00;7.30;;;12.50;99.90;;;;;;5119717;27;20047;-72
2023/04/01 11:21:13;;;;;;;7.85;7.15;;;12.40;99.90;;;;;;5123541;27;20079;-73
2023/04/01 11:24:04;;;;;;;8.10;7.30;;;12.30;99.90;;;;;;5128347;27;20031;-73
2023/04/01 11:26:45;;;;;;;5.82;5.13;;;12.30;99.90;;;;;;5116602;27;20093;-73
2023/04/01 11:29:20;;;;;;;5.32;4.82;;;12.30;99.90;;;;;;5121564;27;20043;-73
2023/04/01 11:31:51;;;;;;;4.47;4.07;;;12.20;99.90;;;;;;5120691;27;20070;-71
2023/04/01 11:34:23;;;;;;;4.07;3.60;;;12.10;99.90;;;;;;5126075;27;20053;-72
2023/04/01 11:36:55;;;;;;;4.13;3.72;;;12.00;99.90;;;;;;5122903;27;20039;-73
2023/04/01 11:39:44;;;;;;;4.35;3.95;;;11.90;99.90;;;;;;5118601;27;20078;-72
2023/04/01 11:42:31;;;;;;;4.80;4.00;;;11.70;99.90;;;;;;5129910;27;20125;-72
2023/04/01 11:45:15;;;;;;;4.45;4.05;;;11.50;99.90;;;;;;5122997;27;20114;-71
2023/04/01 11:48:20;;;;;;;4.78;4.05;;;11.30;99.90;;;;;;5121416;27;20045;-74
2023/04/01 11:51:06;;;;;;;4.72;4.32;;;11.20;99.90;;;;;;5121304;27;20133;-72
2023/04/01 11:53:56;;;;;;;4.35;3.95;;;11.20;99.90;;;;;;5119910;27;20489;-71
2023/04/01 11:56:35;;;;;;;4.22;3.83;;;11.10;99.90;;;;;;5119580;27;20553;-73
2023/04/01 11:59:28;;;;;;;4.32;3.92;;;11.10;99.90;;;;;;5115592;27;20409;-73
2023/04/01 12:01:59;;;;;;;4.20;3.83;;;11.00;99.90;;;;;;5128650;27;20035;-71
2023/04/01 12:04:34;;;;;;;4.25;3.88;;;10.90;99.90;;;;;;5118906;27;20090;-73
2023/04/01 12:07:21;;;;;;;4.18;3.78;;;10.90;99.90;;;;;;5121273;27;20083;-71
2023/04/01 12:10:05;;;;;;;4.38;3.97;;;10.80;99.90;;;;;;5118168;27;20035;-75
2023/04/01 12:13:09;;;;;;;4.32;3.92;;;10.80;99.90;;;;;;5151977;27;20039;-74
2023/04/01 12:15:53;;;;;;;4.15;3.75;;;10.70;99.90;;;;;;5028847;28;20045;-74
2023/04/01 12:18:24;;;;;;;3.90;3.50;;;10.70;99.90;;;;;;5030759;28;20103;-73
2023/04/01 12:20:57;;;;;;;5.55;3.67;;;10.70;99.90;;;;;;5031898;28;20044;-73
2023/04/01 12:23:50;;;;;;;4.07;3.78;;;10.70;99.90;;;;;;5030893;28;20095;-72
2023/04/01 12:26:44;;;;;;;3.97;3.50;;;10.70;99.90;;;;;;5030973;28;20048;-72
2023/04/01 12:29:35;;;;;;;3.80;3.50;;;10.70;99.90;;;;;;5028240;28;20052;-72
2023/04/01 12:32:33;;;;;;;3.95;3.13;;;10.70;99.90;;;;;;4973081;28;20088;-71
2023/04/01 12:35:13;;;;;;;3.53;3.10;;;10.70;99.90;;;;;;4973289;28;20090;-71
2023/04/01 12:38:24;;;;;;;3.45;3.10;;;10.80;99.90;;;;;;4968042;28;20157;-71
2023/04/01 12:40:52;;;;;;;3.55;3.25;;;10.80;99.90;;;;;;4955961;28;20050;-69
2023/04/01 12:43:32;;;;;;;3.00;2.70;;;10.70;99.90;;;;;;4953612;28;20125;-71
2023/04/01 12:46:47;;;;;;;3.25;2.95;;;10.70;99.90;;;;;;4972048;28;20070;-69
2023/04/01 12:49:31;;;;;;;3.95;2.95;;;10.70;99.90;;;;;;4972203;28;20050;-69
2023/04/01 12:52:06;;;;;;;3.45;2.70;;;10.80;99.90;;;;;;4991254;28;20123;-72
2023/04/01 12:54:58;;;;;;;2.92;2.67;;;10.80;99.90;;;;;;5017638;28;20060;-72
2023/04/01 12:57:45;;;;;;;2.90;2.60;;;10.80;99.90;;;;;;5027088;28;20512;-70
2023/04/01 13:00:34;;;;;;;2.97;2.70;;;10.80;99.90;;;;;;5021005;28;20049;-71
2023/04/01 13:03:07;;;;;;;3.47;2.60;;;10.80;99.90;;;;;;5032537;28;20065;-71
2023/04/01 13:05:47;;;;;;;2.83;2.63;;;10.70;99.90;;;;;;5032627;28;20029;-67
2023/04/01 13:08:28;;;;;;;3.25;2.53;;;10.70;99.90;;;;;;5045062;27;20500;-73
2023/04/01 13:11:21;;;;;;;2.90;2.70;;;10.70;99.90;;;;;;5112626;27;20047;-69
2023/04/01 13:13:56;;;;;;;2.92;2.72;;;10.70;99.90;;;;;;5137683;27;20030;-68
2023/04/01 13:17:00;;;;;;;3.58;2.92;;;10.70;99.90;;;;;;5104438;27;20039;-72
2023/04/01 13:19:53;;;;;;;3.80;3.50;;;10.60;99.90;;;;;;5112093;27;20051;-70
2023/04/01 13:22:37;;;;;;;4.93;3.47;;;10.60;99.90;;;;;;5096028;27;20130;-69
2023/04/01 13:25:18;;;;;;;3.50;3.20;;;10.50;99.90;;;;;;5113527;27;20549;-69
2023/04/01 13:27:56;;;;;;;3.80;3.05;;;10.50;99.90;;;;;;5113078;27;20047;-70
2023/04/01 13:30:34;;;;;;;3.25;3.03;;;10.50;99.90;;;;;;5112878;27;20046;-70
2023/04/01 13:33:28;;;;;;;3.30;3.00;;;10.50;99.90;;;;;;5112362;27;20125;-67
2023/04/01 13:36:29;;;;;;;3.55;3.25;;;10.50;99.90;;;;;;5112452;27;20502;-68
2023/04/01 13:39:20;;;;;;;3.33;3.03;;;10.50;99.90;;;;;;5112481;27;20078;-67
2023/04/01 13:41:54;;;;;;;2.65;2.45;;;10.50;99.90;;;;;;5095314;27;20385;-70
2023/04/01 13:44:35;;;;;;;2.85;2.58;;;10.50;99.90;;;;;;5111837;27;20047;-69